Time;durP1;ratioP1;P1;durP2;ratioP2;P2;SDS_P1;SDS_P2;PMS_P1;PMS_P2;Temp;Humidity;BMP_temperature;BMP_pressure;BME280_temperature;BME280_humidity;BME280_pressure;Samples;Min_cycle;Max_cycle;Signal;HPM_P1;HPM_P2
2021/11/21 00:02:11;;;;;;;27.67;13.43;;;;;;;3.50;100.00;98757.41;5070592;28;20023;-73
2021/11/21 00:04:36;;;;;;;23.60;11.98;;;;;;;3.39;100.00;98730.13;5068250;28;20141;-73
2021/11/21 00:07:02;;;;;;;28.25;12.10;;;;;;;3.59;100.00;98747.59;5069464;28;20029;-72
2021/11/21 00:09:28;;;;;;;25.00;11.70;;;;;;;3.68;100.00;98751.16;5068891;28;20028;-73
2021/11/21 00:11:53;;;;;;;21.75;11.95;;;;;;;3.80;100.00;98773.94;5059390;28;20025;-72
2021/11/21 00:14:19;;;;;;;22.02;11.93;;;;;;;3.71;100.00;98759.69;5059570;28;20482;-73
2021/11/21 00:16:44;;;;;;;20.63;11.02;;;;;;;3.74;100.00;98756.69;5068532;28;20081;-72
2021/11/21 00:19:09;;;;;;;18.90;11.43;;;;;;;3.67;100.00;98753.00;5056562;28;20128;-73
2021/11/21 00:21:36;;;;;;;21.27;10.48;;;;;;;3.92;100.00;98763.78;5066090;28;20117;-73
2021/11/21 00:24:02;;;;;;;20.73;10.90;;;;;;;3.77;100.00;98741.31;5062748;28;20020;-72
2021/11/21 00:26:28;;;;;;;20.55;11.50;;;;;;;3.60;100.00;98730.53;5069104;28;20706;-73
2021/11/21 00:28:54;;;;;;;24.80;11.57;;;;;;;3.67;100.00;98762.88;5053274;28;20035;-72
2021/11/21 00:31:19;;;;;;;20.90;11.45;;;;;;;3.65;100.00;98741.59;5065102;28;20040;-73
2021/11/21 00:33:45;;;;;;;19.70;10.75;;;;;;;3.59;100.00;98733.38;5068169;28;20035;-73
2021/11/21 00:36:11;;;;;;;23.05;11.18;;;;;;;3.67;100.00;98757.50;5066043;28;20055;-73
2021/11/21 00:38:37;;;;;;;22.92;11.98;;;;;;;3.63;100.00;98746.28;5055585;28;20024;-72
2021/11/21 00:41:03;;;;;;;28.70;12.65;;;;;;;3.66;100.00;98753.97;5069833;28;20032;-73
2021/11/21 00:43:29;;;;;;;20.55;10.52;;;;;;;3.57;100.00;98717.50;5068893;28;20114;-74
2021/11/21 00:45:54;;;;;;;24.38;11.45;;;;;;;3.74;100.00;98737.94;5064886;28;20028;-72
2021/11/21 00:48:21;;;;;;;20.08;11.27;;;;;;;3.67;100.00;98718.22;5068577;28;20069;-73
2021/11/21 00:50:50;;;;;;;23.60;11.55;;;;;;;3.66;100.00;98711.16;5069988;28;20024;-72
2021/11/21 00:53:16;;;;;;;21.67;11.63;;;;;;;3.72;100.00;98736.44;5068829;28;20032;-73
2021/11/21 00:55:54;;;;;;;20.88;10.73;;;;;;;3.64;100.00;98720.34;5068410;28;20032;-72
2021/11/21 00:58:19;;;;;;;25.08;11.65;;;;;;;3.76;100.00;98728.94;5063044;28;20064;-73
2021/11/21 01:00:48;;;;;;;20.58;10.68;;;;;;;3.42;100.00;98687.00;5068437;28;20067;-72
2021/11/21 01:03:18;;;;;;;21.05;11.25;;;;;;;3.62;100.00;98725.88;5067870;28;20513;-72
2021/11/21 01:05:46;;;;;;;24.98;11.95;;;;;;;3.54;100.00;98692.88;5069776;28;20091;-73
2021/11/21 01:08:12;;;;;;;22.55;11.10;;;;;;;3.65;100.00;98709.50;5068983;28;20032;-73
2021/11/21 01:10:40;;;;;;;23.98;12.32;;;;;;;3.75;100.00;98730.78;5062609;28;20028;-73
2021/11/21 01:13:06;;;;;;;25.15;11.88;;;;;;;3.62;100.00;98731.22;5067705;28;20378;-73
2021/11/21 01:15:33;;;;;;;23.42;11.50;;;;;;;3.33;100.00;98694.16;5068425;28;20038;-73
2021/11/21 01:17:59;;;;;;;28.83;11.52;;;;;;;3.43;100.00;98707.38;5067007;28;20709;-73
2021/11/21 01:20:28;;;;;;;22.95;11.75;;;;;;;3.64;100.00;98729.25;5062900;28;20494;-72
2021/11/21 01:22:54;;;;;;;21.52;11.70;;;;;;;3.67;100.00;98730.75;5051948;28;20020;-72
2021/11/21 01:25:20;;;;;;;21.75;10.88;;;;;;;3.68;100.00;98735.94;5062984;28;20649;-73
2021/11/21 01:27:45;;;;;;;21.27;10.82;;;;;;;3.62;100.00;98709.00;5053347;28;20465;-73
2021/11/21 01:30:16;;;;;;;24.77;11.75;;;;;;;3.45;100.00;98708.06;5083155;28;20032;-73
2021/11/21 01:32:42;;;;;;;19.75;10.85;;;;;;;3.55;100.00;98724.00;5055898;28;20636;-73
2021/11/21 01:35:09;;;;;;;21.45;11.27;;;;;;;3.57;100.00;98727.38;5069670;28;20020;-72
2021/11/21 01:37:35;;;;;;;27.58;12.45;;;;;;;3.38;100.00;98696.34;5069137;28;20024;-73
2021/11/21 01:40:00;;;;;;;23.25;12.13;;;;;;;3.57;100.00;98722.00;5068609;28;20043;-71
2021/11/21 01:42:26;;;;;;;22.33;11.93;;;;;;;3.67;100.00;98707.50;5070256;28;20035;-71
2021/11/21 01:44:51;;;;;;;23.00;11.48;;;;;;;3.63;100.00;98705.31;5071463;28;20086;-71
2021/11/21 01:47:17;;;;;;;21.88;11.23;;;;;;;3.61;100.00;98707.31;5069423;28;20386;-71
2021/11/21 01:49:43;;;;;;;23.70;11.02;;;;;;;3.61;100.00;98708.13;5071703;28;20078;-71
2021/11/21 01:52:08;;;;;;;20.95;11.05;;;;;;;3.65;100.00;98703.31;5071064;28;20119;-71
2021/11/21 01:54:33;;;;;;;22.63;11.35;;;;;;;3.56;100.00;98704.28;5069806;28;20624;-71
2021/11/21 01:57:00;;;;;;;20.90;10.52;;;;;;;3.51;100.00;98692.25;5070625;28;20041;-70
2021/11/21 01:59:26;;;;;;;20.65;11.00;;;;;;;3.61;100.00;98692.09;5071344;28;20025;-71
2021/11/21 02:01:51;;;;;;;22.42;11.55;;;;;;;3.74;100.00;98692.47;5071644;28;20359;-70
2021/11/21 02:04:16;;;;;;;21.40;10.82;;;;;;;3.76;100.00;98691.47;5071788;28;20029;-71
2021/11/21 02:06:42;;;;;;;20.45;10.32;;;;;;;3.70;100.00;98674.25;5070860;28;20133;-71
2021/11/21 02:09:07;;;;;;;22.73;11.55;;;;;;;3.64;100.00;98664.16;5071759;28;20025;-71
2021/11/21 02:11:33;;;;;;;22.73;11.90;;;;;;;3.66;100.00;98681.72;5064328;28;20021;-71
2021/11/21 02:13:59;;;;;;;20.80;11.02;;;;;;;3.59;100.00;98667.34;5089992;28;20012;-70
2021/11/21 02:16:28;;;;;;;22.17;11.35;;;;;;;3.56;100.00;98658.81;5054459;28;20391;-71
2021/11/21 02:18:53;;;;;;;;;;;;;;;3.55;100.00;98668.66;5052178;28;20028;-71
2021/11/21 02:21:19;;;;;;;21.38;11.07;;;;;;;3.47;100.00;98657.94;5073167;28;19913;-71
2021/11/21 02:23:46;;;;;;;25.25;12.40;;;;;;;3.56;100.00;98664.97;5071069;28;20024;-71
2021/11/21 02:26:17;;;;;;;23.02;12.15;;;;;;;3.49;100.00;98645.25;5069116;28;20026;-71
2021/11/21 02:28:44;;;;;;;27.67;12.23;;;;;;;3.59;100.00;98659.34;5073996;28;20411;-71
2021/11/21 02:31:13;;;;;;;26.88;12.45;;;;;;;3.34;100.00;98620.13;5068493;28;20062;-71
2021/11/21 02:33:39;;;;;;;19.75;10.65;;;;;;;3.56;100.00;98643.59;5055882;28;20410;-71
2021/11/21 02:36:06;;;;;;;22.92;10.23;;;;;;;3.38;100.00;98625.00;5071038;28;20056;-71
2021/11/21 02:38:32;;;;;;;22.25;10.80;;;;;;;3.61;100.00;98641.25;5056483;28;20094;-71
2021/11/21 02:40:59;;;;;;;23.40;10.63;;;;;;;3.61;100.00;98638.59;5075477;28;20043;-71
2021/11/21 02:43:25;;;;;;;20.17;9.48;;;;;;;3.60;100.00;98625.38;5068043;28;20083;-71
2021/11/21 02:45:53;;;;;;;24.25;10.80;;;;;;;3.58;100.00;98625.53;5071685;28;20504;-71
2021/11/21 02:48:21;;;;;;;21.43;9.53;;;;;;;3.58;100.00;98627.38;5073203;28;20025;-71
2021/11/21 02:50:47;;;;;;;21.85;8.98;;;;;;;3.50;100.00;98622.84;5072125;28;20396;-71
2021/11/21 02:53:21;;;;;;;20.65;8.68;;;;;;;3.47;100.00;98620.50;5061018;28;20028;-70
2021/11/21 02:55:50;;;;;;;20.83;8.88;;;;;;;3.42;100.00;98618.31;5074783;28;20425;-71
2021/11/21 02:58:15;;;;;;;20.27;9.35;;;;;;;3.28;100.00;98600.22;5074386;28;20028;-71
2021/11/21 03:00:41;;;;;;;20.65;8.85;;;;;;;3.26;100.00;98603.03;5062651;28;20035;-71
2021/11/21 03:03:07;;;;;;;27.52;9.93;;;;;;;3.14;100.00;98574.09;5073828;28;20032;-71
2021/11/21 03:05:34;;;;;;;27.85;10.40;;;;;;;3.36;100.00;98596.75;5068613;28;20020;-71
2021/11/21 03:07:59;;;;;;;29.75;11.32;;;;;;;3.18;100.00;98581.63;5054832;28;20495;-71
2021/11/21 03:10:25;;;;;;;25.95;11.15;;;;;;;3.43;100.00;98590.59;5055203;28;20104;-71
2021/11/21 03:12:57;;;;;;;22.27;9.65;;;;;;;3.51;100.00;98587.06;5072555;28;20054;-70
2021/11/21 03:15:23;;;;;;;21.25;9.73;;;;;;;3.51;100.00;98595.09;5057080;28;20029;-71
2021/11/21 03:17:49;;;;;;;29.30;10.88;;;;;;;3.34;100.00;98572.00;5054582;28;20041;-71
2021/11/21 03:20:19;;;;;;;22.35;9.85;;;;;;;3.49;100.00;98581.06;5057516;28;20030;-71
2021/11/21 03:22:44;;;;;;;23.23;10.23;;;;;;;3.45;100.00;98591.22;5067471;28;20021;-71
2021/11/21 03:25:11;;;;;;;24.40;9.77;;;;;;;3.47;100.00;98583.06;5069861;28;20021;-71
2021/11/21 03:27:36;;;;;;;25.50;10.43;;;;;;;3.32;100.00;98565.97;5054669;28;20111;-71
2021/11/21 03:30:05;;;;;;;24.67;10.27;;;;;;;3.50;100.00;98577.38;5080344;28;20048;-71
2021/11/21 03:32:30;;;;;;;21.63;8.57;;;;;;;3.29;100.00;98554.59;5072051;28;20063;-71
2021/11/21 03:34:56;;;;;;;29.55;11.77;;;;;;;3.35;100.00;98574.50;5072222;28;20068;-71
2021/11/21 03:37:22;;;;;;;27.80;11.55;;;;;;;3.32;100.00;98565.97;5073579;28;20052;-71
2021/11/21 03:39:47;;;;;;;25.85;10.80;;;;;;;3.29;100.00;98570.63;5057793;28;20036;-70
2021/11/21 03:42:13;;;;;;;26.45;10.70;;;;;;;3.26;100.00;98562.94;5068134;28;20022;-73
2021/11/21 03:44:38;;;;;;;23.52;9.68;;;;;;;3.19;100.00;98563.75;5072747;28;20036;-71
2021/11/21 03:47:03;;;;;;;27.08;10.15;;;;;;;3.21;100.00;98557.25;5059524;28;20028;-71
2021/11/21 03:49:29;;;;;;;29.10;9.93;;;;;;;3.26;100.00;98559.44;5069464;28;20074;-71
2021/11/21 03:51:54;;;;;;;27.73;11.07;;;;;;;3.24;100.00;98546.22;5069920;28;20016;-71
2021/11/21 03:54:20;;;;;;;26.80;10.35;;;;;;;3.35;100.00;98561.13;5062402;28;20028;-72
2021/11/21 03:56:45;;;;;;;29.52;11.35;;;;;;;3.23;100.00;98541.06;5061724;28;20035;-71
2021/11/21 03:59:10;;;;;;;29.30;11.07;;;;;;;3.27;100.00;98532.56;5073239;28;20027;-72
2021/11/21 04:01:36;;;;;;;30.98;11.57;;;;;;;3.16;100.00;98530.16;5064398;28;20028;-71
2021/11/21 04:04:05;;;;;;;31.48;11.07;;;;;;;3.26;100.00;98544.22;5073570;28;20042;-71
2021/11/21 04:06:30;;;;;;;;;;;;;;;3.27;100.00;98548.59;5073740;28;20021;-71
2021/11/21 04:08:56;;;;;;;24.55;9.98;;;;;;;3.31;100.00;98545.59;5073538;28;20427;-71
2021/11/21 04:11:21;;;;;;;28.23;10.63;;;;;;;3.33;100.00;98549.78;5067662;28;20039;-72
2021/11/21 04:13:46;;;;;;;30.67;11.05;;;;;;;3.20;100.00;98526.19;5072948;28;20044;-71
2021/11/21 04:16:12;;;;;;;24.50;9.88;;;;;;;3.31;100.00;98524.19;5072987;28;20017;-71
2021/11/21 04:18:37;;;;;;;19.13;9.18;;;;;;;3.42;100.00;98534.56;5071946;28;20047;-71
2021/11/21 04:21:02;;;;;;;24.17;9.63;;;;;;;3.38;100.00;98531.41;5066107;28;20119;-70
2021/11/21 04:23:30;;;;;;;24.42;10.43;;;;;;;3.53;100.00;98523.53;5073040;28;20082;-72
2021/11/21 04:25:57;;;;;;;19.38;8.95;;;;;;;3.52;100.00;98521.88;5060057;28;20017;-71
2021/11/21 04:28:22;;;;;;;19.05;7.93;;;;;;;3.54;100.00;98525.25;5072705;28;20103;-71
2021/11/21 04:30:47;;;;;;;15.85;7.65;;;;;;;3.41;100.00;98514.19;5064577;28;20151;-71
2021/11/21 04:33:13;;;;;;;17.50;7.25;;;;;;;3.51;100.00;98522.88;5072269;28;20100;-71
2021/11/21 04:35:38;;;;;;;16.23;7.53;;;;;;;3.42;100.00;98515.84;5072399;28;20052;-71
2021/11/21 04:38:03;;;;;;;16.58;7.82;;;;;;;3.26;100.00;98496.09;5070620;28;20029;-71
2021/11/21 04:40:29;;;;;;;16.95;8.13;;;;;;;3.34;100.00;98502.47;5069398;28;20025;-71
2021/11/21 04:42:54;;;;;;;21.20;9.35;;;;;;;3.34;100.00;98497.97;5072209;28;20032;-71
2021/11/21 04:45:20;;;;;;;16.40;7.60;;;;;;;3.36;100.00;98512.00;5069634;28;20029;-71
2021/11/21 04:47:45;;;;;;;18.25;8.05;;;;;;;3.13;100.00;98474.38;5072354;28;20592;-71
2021/11/21 04:50:12;;;;;;;19.00;7.70;;;;;;;3.31;100.00;98503.63;5071072;28;20058;-71
2021/11/21 04:52:38;;;;;;;17.23;7.90;;;;;;;3.29;100.00;98479.72;5066560;28;20025;-71
2021/11/21 04:55:04;;;;;;;14.75;6.95;;;;;;;3.44;100.00;98492.47;5060334;28;20106;-71
2021/11/21 04:57:29;;;;;;;16.50;6.60;;;;;;;3.22;100.00;98465.38;5068837;28;20024;-71
2021/11/21 04:59:55;;;;;;;15.75;6.85;;;;;;;3.25;100.00;98465.03;5055600;28;20146;-72
2021/11/21 05:02:20;;;;;;;16.65;7.20;;;;;;;3.33;100.00;98476.72;5061234;28;20379;-71
2021/11/21 05:04:46;;;;;;;14.82;7.78;;;;;;;3.35;100.00;98474.72;5074796;28;20391;-71
2021/11/21 05:07:11;;;;;;;15.13;6.47;;;;;;;3.57;100.00;98492.81;5056434;28;20031;-72
2021/11/21 05:09:36;;;;;;;17.55;7.03;;;;;;;3.62;100.00;98482.44;5071281;28;20454;-72
2021/11/21 05:12:02;;;;;;;15.77;7.78;;;;;;;3.60;100.00;98483.63;5070996;28;20020;-73
2021/11/21 05:14:27;;;;;;;15.80;6.85;;;;;;;3.52;100.00;98487.13;5072120;28;20038;-72
2021/11/21 05:16:52;;;;;;;16.63;7.47;;;;;;;3.38;100.00;98469.03;5072184;28;20016;-72
2021/11/21 05:19:18;;;;;;;16.30;7.68;;;;;;;3.60;100.00;98484.44;5071885;28;20039;-73
2021/11/21 05:21:44;;;;;;;19.92;8.93;;;;;;;3.50;100.00;98497.97;5071523;28;20017;-72
2021/11/21 05:24:09;;;;;;;17.38;8.40;;;;;;;3.29;100.00;98460.19;5072279;28;20020;-72
2021/11/21 05:26:35;;;;;;;18.08;8.30;;;;;;;3.52;100.00;98489.78;5071131;28;20059;-72
2021/11/21 05:29:00;;;;;;;20.75;9.70;;;;;;;3.57;100.00;98482.09;5071849;28;20016;-72
2021/11/21 05:31:26;;;;;;;22.08;10.20;;;;;;;3.63;100.00;98484.09;5067373;28;20535;-72
2021/11/21 05:33:52;;;;;;;24.80;10.55;;;;;;;3.48;100.00;98459.88;5061358;28;20082;-72
2021/11/21 05:36:18;;;;;;;22.75;11.20;;;;;;;3.56;100.00;98485.75;5071500;28;20051;-72
2021/11/21 05:38:43;;;;;;;26.80;12.15;;;;;;;3.32;100.00;98464.38;5070370;28;20478;-72
2021/11/21 05:41:09;;;;;;;26.88;12.00;;;;;;;3.35;100.00;98458.69;5072183;28;20033;-72
2021/11/21 05:43:34;;;;;;;21.80;10.20;;;;;;;3.40;100.00;98480.41;5070470;28;20025;-72
2021/11/21 05:45:59;;;;;;;21.95;9.55;;;;;;;3.41;100.00;98482.94;5070251;28;20012;-72
2021/11/21 05:48:25;;;;;;;22.85;9.05;;;;;;;3.43;100.00;98477.41;5071726;28;20016;-72
2021/11/21 05:50:50;;;;;;;22.92;10.20;;;;;;;3.37;100.00;98448.66;5066290;28;20399;-73
2021/11/21 05:53:16;;;;;;;23.13;10.30;;;;;;;3.49;100.00;98464.22;5069765;28;20021;-72
2021/11/21 05:55:41;;;;;;;25.52;10.85;;;;;;;3.50;100.00;98465.88;5070562;28;20028;-72
2021/11/21 05:58:07;;;;;;;21.33;10.45;;;;;;;3.43;100.00;98464.03;5071681;28;20084;-71
2021/11/21 06:00:32;;;;;;;25.02;11.15;;;;;;;3.18;100.00;98434.59;5070984;28;20032;-72
2021/11/21 06:02:59;;;;;;;22.42;10.40;;;;;;;3.32;100.00;98443.81;5069378;28;20378;-72
2021/11/21 06:05:24;;;;;;;26.85;10.63;;;;;;;3.34;100.00;98443.66;5070508;28;20071;-72
2021/11/21 06:07:50;;;;;;;22.95;10.60;;;;;;;3.51;100.00;98461.34;5075421;28;20032;-72
2021/11/21 06:10:16;;;;;;;26.50;10.18;;;;;;;3.42;100.00;98463.19;5075775;28;20036;-72
2021/11/21 06:12:41;;;;;;;22.02;9.55;;;;;;;3.48;100.00;98469.72;5074443;28;20020;-72
2021/11/21 06:15:09;;;;;;;20.60;10.30;;;;;;;3.48;100.00;98462.56;5063107;28;20065;-72
2021/11/21 06:17:34;;;;;;;23.92;10.15;;;;;;;3.46;100.00;98477.09;5073442;28;20032;-72
2021/11/21 06:20:00;;;;;;;23.15;10.85;;;;;;;3.38;100.00;98466.38;5067046;28;20029;-72
2021/11/21 06:22:25;;;;;;;22.58;9.70;;;;;;;3.54;100.00;98486.94;5075374;28;20374;-74
2021/11/21 06:24:50;;;;;;;21.92;9.50;;;;;;;3.25;100.00;98446.31;5075242;28;20031;-73
2021/11/21 06:27:16;;;;;;;21.13;10.13;;;;;;;3.32;100.00;98459.03;5074267;28;20052;-71
2021/11/21 06:29:41;;;;;;;22.85;10.05;;;;;;;3.47;100.00;98486.78;5073977;28;20024;-71
2021/11/21 06:32:07;;;;;;;23.20;10.32;;;;;;;3.56;100.00;98484.94;5075138;28;20031;-73
2021/11/21 06:34:33;;;;;;;18.65;9.07;;;;;;;3.39;100.00;98441.31;5070578;28;20032;-72
2021/11/21 06:37:00;;;;;;;20.02;8.25;;;;;;;3.60;100.00;98467.56;5073510;28;20028;-71
2021/11/21 06:39:25;;;;;;;20.85;8.95;;;;;;;3.58;100.00;98473.06;5073235;28;20028;-74
2021/11/21 06:41:51;;;;;;;17.63;8.52;;;;;;;3.53;100.00;98455.84;5075270;28;20527;-73
2021/11/21 06:44:16;;;;;;;16.75;8.13;;;;;;;3.42;100.00;98443.66;5074454;28;20025;-73
2021/11/21 06:46:42;;;;;;;21.83;9.30;;;;;;;3.39;100.00;98460.03;5074752;28;20036;-72
2021/11/21 06:49:07;;;;;;;25.35;10.45;;;;;;;3.45;100.00;98480.75;5074892;28;20052;-71
2021/11/21 06:51:33;;;;;;;24.13;9.95;;;;;;;3.39;100.00;98468.06;5073705;28;20055;-73
2021/11/21 06:53:58;;;;;;;27.90;10.60;;;;;;;3.40;100.00;98469.72;5074814;28;20059;-75
2021/11/21 06:56:28;;;;;;;26.48;11.43;;;;;;;3.54;100.00;98482.44;5069360;28;20406;-73
2021/11/21 06:58:53;;;;;;;27.75;11.65;;;;;;;3.38;100.00;98453.00;5071954;28;20375;-78
2021/11/21 07:01:19;;;;;;;29.48;12.13;;;;;;;3.39;100.00;98470.72;5074412;28;20036;-72
2021/11/21 07:03:44;;;;;;;22.60;9.57;;;;;;;3.30;100.00;98459.16;5073603;28;20049;-76
2021/11/21 07:06:31;;;;;;;22.80;10.30;;;;;;;3.55;100.00;98494.81;5073117;28;20448;-72
2021/11/21 07:08:56;;;;;;;24.75;10.13;;;;;;;3.47;100.00;98484.94;5073210;28;20027;-73
2021/11/21 07:11:22;;;;;;;25.33;10.52;;;;;;;3.42;100.00;98478.41;5072972;28;20020;-73
2021/11/21 07:13:48;;;;;;;19.75;9.10;;;;;;;3.53;100.00;98504.81;5067273;28;20177;-72
2021/11/21 07:16:13;;;;;;;22.75;9.98;;;;;;;3.32;100.00;98477.72;5074160;28;20104;-74
2021/11/21 07:18:39;;;;;;;25.02;10.60;;;;;;;3.33;100.00;98477.56;5072550;28;20367;-71
2021/11/21 07:21:04;;;;;;;23.45;9.48;;;;;;;3.36;100.00;98495.13;5073405;28;20485;-73
2021/11/21 07:23:29;;;;;;;22.42;11.38;;;;;;;3.32;100.00;98481.22;5072438;28;20029;-75
2021/11/21 07:25:54;;;;;;;24.60;10.10;;;;;;;3.22;100.00;98461.84;5072751;28;20051;-71
2021/11/21 07:28:20;;;;;;;25.08;9.30;;;;;;;3.28;100.00;98467.38;5066982;28;20752;-75
2021/11/21 07:30:45;;;;;;;21.92;9.60;;;;;;;3.26;100.00;98457.84;5071523;28;20031;-71
2021/11/21 07:33:10;;;;;;;19.50;9.60;;;;;;;3.39;100.00;98489.44;5074307;28;20031;-76
2021/11/21 07:35:36;;;;;;;20.20;9.90;;;;;;;3.13;100.00;98438.78;5074427;28;20028;-77
2021/11/21 07:38:01;;;;;;;24.42;11.15;;;;;;;3.47;100.00;98514.34;5072521;28;20033;-72
2021/11/21 07:40:27;;;;;;;25.73;11.63;;;;;;;3.41;100.00;98498.16;5072912;28;20025;-74
2021/11/21 07:42:52;;;;;;;23.70;11.43;;;;;;;3.45;100.00;98502.16;5074198;28;20370;-77
2021/11/21 07:45:17;;;;;;;27.50;12.90;;;;;;;3.32;100.00;98489.25;5072723;28;20433;-74
2021/11/21 07:47:44;;;;;;;27.80;12.60;;;;;;;3.07;100.00;98483.03;5076880;28;20016;-72
2021/11/21 07:50:10;;;;;;;28.60;13.13;;;;;;;3.21;100.00;98497.59;5066497;28;20017;-72
2021/11/21 07:52:36;;;;;;;33.38;14.18;;;;;;;3.16;100.00;98479.38;5075037;28;20540;-71
2021/11/21 07:55:01;;;;;;;30.27;13.70;;;;;;;3.24;100.00;98481.22;5072652;28;20478;-72
2021/11/21 07:57:26;;;;;;;28.95;12.55;;;;;;;3.47;100.00;98506.31;5072139;28;20405;-72
2021/11/21 07:59:52;;;;;;;32.65;14.90;;;;;;;3.45;100.00;98504.81;5068538;28;20505;-72
2021/11/21 08:02:17;;;;;;;35.42;14.73;;;;;;;3.36;100.00;98484.44;5073071;28;20017;-71
2021/11/21 08:04:42;;;;;;;41.33;15.85;;;;;;;3.47;100.00;98489.44;5073330;28;20024;-72
2021/11/21 08:07:08;;;;;;;36.83;15.65;;;;;;;3.58;100.00;98504.34;5065171;28;20032;-72
2021/11/21 08:09:34;;;;;;;36.50;15.75;;;;;;;3.36;100.00;98482.59;5069413;28;20033;-72
2021/11/21 08:12:00;;;;;;;38.10;16.35;;;;;;;3.29;100.00;98478.91;5061264;28;20017;-72
2021/11/21 08:14:25;;;;;;;39.25;16.05;;;;;;;3.54;100.00;98511.88;5071927;28;20036;-72
2021/11/21 08:16:50;;;;;;;34.35;16.13;;;;;;;3.49;100.00;98506.19;5071647;28;20174;-71
2021/11/21 08:19:16;;;;;;;37.03;16.30;;;;;;;3.33;100.00;98487.41;5075175;28;20029;-71
2021/11/21 08:21:41;;;;;;;36.53;16.27;;;;;;;3.49;100.00;98507.00;5068163;28;20017;-71
2021/11/21 08:24:07;;;;;;;40.30;16.60;;;;;;;3.41;100.00;98487.44;5074509;28;20471;-74
2021/11/21 08:26:34;;;;;;;33.85;14.75;;;;;;;3.55;100.00;98502.00;5076092;28;20413;-73
2021/11/21 08:28:59;;;;;;;37.78;15.98;;;;;;;3.50;100.00;98491.78;5072894;28;20024;-70
2021/11/21 08:31:25;;;;;;;34.40;14.95;;;;;;;3.44;100.00;98495.97;5065018;28;20441;-71
2021/11/21 08:33:50;;;;;;;39.85;14.68;;;;;;;3.52;100.00;98497.81;5062232;28;20036;-71
2021/11/21 08:36:15;;;;;;;30.00;13.48;;;;;;;3.44;100.00;98471.91;5070272;28;20032;-71
2021/11/21 08:38:41;;;;;;;30.65;13.77;;;;;;;3.53;100.00;98490.63;5068131;28;20081;-73
2021/11/21 08:41:06;;;;;;;30.85;13.70;;;;;;;3.59;100.00;98489.94;5070390;28;20426;-70
2021/11/21 08:43:31;;;;;;;33.92;14.45;;;;;;;3.39;100.00;98470.72;5072783;28;20031;-69
2021/11/21 08:45:57;;;;;;;32.90;14.45;;;;;;;3.40;100.00;98481.25;5070978;28;20024;-72
2021/11/21 08:48:22;;;;;;;23.80;11.07;;;;;;;3.57;100.00;98497.31;5074029;28;20031;-73
2021/11/21 08:50:48;;;;;;;26.55;11.57;;;;;;;3.49;100.00;98490.97;5076617;28;20299;-73
2021/11/21 08:53:14;;;;;;;25.67;10.27;;;;;;;3.63;100.00;98508.19;5076808;28;20028;-72
2021/11/21 08:55:40;;;;;;;18.50;9.13;;;;;;;3.54;100.00;98502.97;5073747;28;20028;-74
2021/11/21 08:58:06;;;;;;;20.25;10.13;;;;;;;3.43;100.00;98498.78;5072870;28;20074;-75
2021/11/21 09:00:32;;;;;;;21.65;9.73;;;;;;;3.60;100.00;98508.53;5071178;28;20481;-75
2021/11/21 09:02:57;;;;;;;20.73;9.07;;;;;;;3.42;100.00;98478.41;5068066;28;20012;-73
2021/11/21 09:05:23;;;;;;;20.48;9.98;;;;;;;3.43;100.00;98483.59;5072487;28;20024;-74
2021/11/21 09:07:49;;;;;;;16.80;8.68;;;;;;;3.56;100.00;98507.16;5075518;28;20024;-71
2021/11/21 09:10:17;;;;;;;18.90;8.20;;;;;;;3.45;100.00;98467.38;5079554;28;20033;-73
2021/11/21 09:12:43;;;;;;;20.48;8.27;;;;;;;3.53;100.00;98491.44;5073044;28;20021;-72
2021/11/21 09:15:14;;;;;;;18.15;8.88;;;;;;;3.59;100.00;98516.69;5063508;28;20024;-72
2021/11/21 09:17:45;;;;;;;19.25;9.32;;;;;;;3.59;100.00;98497.97;5072280;28;20028;-71
2021/11/21 09:20:11;;;;;;;17.67;8.18;;;;;;;3.48;100.00;98488.44;5070228;28;20034;-71
2021/11/21 09:22:38;;;;;;;17.67;8.45;;;;;;;3.42;100.00;98487.25;5069929;28;20028;-75
2021/11/21 09:25:04;;;;;;;17.50;7.90;;;;;;;3.32;100.00;98483.06;5073709;28;20060;-77
2021/11/21 09:27:30;;;;;;;18.33;7.78;;;;;;;3.26;100.00;98490.75;5072934;28;20090;-74
2021/11/21 09:29:55;;;;;;;18.70;7.55;;;;;;;3.27;100.00;98472.88;5071847;28;20534;-74
2021/11/21 09:32:21;;;;;;;16.00;6.82;;;;;;;3.33;100.00;98482.94;5071163;28;20020;-73
2021/11/21 09:34:46;;;;;;;14.30;7.10;;;;;;;3.34;100.00;98487.25;5074539;28;20036;-72
2021/11/21 09:37:11;;;;;;;18.65;8.30;;;;;;;3.32;100.00;98499.13;5072281;28;20021;-73
2021/11/21 09:39:37;;;;;;;14.65;6.63;;;;;;;3.36;100.00;98503.16;5073002;28;20089;-69
2021/11/21 09:42:03;;;;;;;16.25;6.80;;;;;;;3.46;100.00;98501.16;5070328;28;20085;-69
2021/11/21 09:44:28;;;;;;;15.38;6.57;;;;;;;3.47;100.00;98494.81;5077353;28;20028;-68
2021/11/21 09:46:54;;;;;;;14.18;6.55;;;;;;;3.31;100.00;98490.28;5071907;28;20470;-70
2021/11/21 09:49:20;;;;;;;13.10;6.80;;;;;;;3.36;100.00;98485.25;5074613;28;20055;-72
2021/11/21 09:51:46;;;;;;;15.20;7.20;;;;;;;3.46;100.00;98503.84;5070740;28;20047;-73
2021/11/21 09:54:14;;;;;;;12.43;7.00;;;;;;;3.44;100.00;98497.81;5071164;28;20549;-73
2021/11/21 09:56:41;;;;;;;17.00;7.13;;;;;;;3.50;100.00;98497.13;5071887;28;20718;-72
2021/11/21 09:59:06;;;;;;;13.55;7.18;;;;;;;3.18;100.00;98476.56;5065253;28;20036;-72
2021/11/21 10:01:34;;;;;;;14.65;7.60;;;;;;;3.01;100.00;98486.34;5066248;28;20085;-73
2021/11/21 10:04:00;;;;;;;16.60;7.40;;;;;;;2.99;100.00;98477.69;5072807;28;20049;-72
2021/11/21 10:06:35;;;;;;;15.43;6.88;;;;;;;2.97;100.00;98450.28;5064974;28;20036;-73
2021/11/21 10:09:05;;;;;;;17.80;7.20;;;;;;;3.29;100.00;98485.06;5067306;28;20729;-75
2021/11/21 10:11:31;;;;;;;12.05;5.32;;;;;;;3.23;100.00;98460.84;5071555;28;20020;-73
2021/11/21 10:14:05;;;;;;;11.88;5.55;;;;;;;3.24;100.00;98458.00;5063367;28;20040;-74
2021/11/21 10:16:35;;;;;;;12.20;5.63;;;;;;;3.22;100.00;98478.72;5075550;28;20031;-74
2021/11/21 10:19:09;;;;;;;9.60;5.07;;;;;;;3.48;100.00;98470.59;5071904;28;20025;-73
2021/11/21 10:21:53;;;;;;;13.82;6.72;;;;;;;3.50;100.00;98454.34;5071552;28;20020;-74
2021/11/21 10:24:30;;;;;;;9.90;6.00;;;;;;;3.54;100.00;98461.06;5065207;28;20024;-73
2021/11/21 10:27:08;;;;;;;12.95;6.15;;;;;;;3.50;100.00;98462.38;5069348;28;20025;-73
2021/11/21 10:29:35;;;;;;;13.65;6.22;;;;;;;3.53;100.00;98456.69;5071484;28;20386;-73
2021/11/21 10:32:02;;;;;;;10.85;6.10;;;;;;;3.56;100.00;98452.84;5067550;28;20561;-73
2021/11/21 10:34:28;;;;;;;14.98;5.32;;;;;;;3.06;100.00;98419.88;5066451;28;20485;-72
2021/11/21 10:36:55;;;;;;;12.43;5.30;;;;;;;3.38;100.00;98442.28;5069320;28;20035;-74
2021/11/21 10:39:26;;;;;;;12.00;5.50;;;;;;;3.42;100.00;98446.31;5067773;28;20673;-73
2021/11/21 10:41:54;;;;;;;11.18;4.90;;;;;;;3.29;100.00;98404.88;5069137;28;20070;-73
2021/11/21 10:44:21;;;;;;;10.80;5.40;;;;;;;3.60;99.25;98433.63;5071293;28;20112;-73
2021/11/21 10:46:47;;;;;;;8.68;4.72;;;;;;;3.55;99.31;98443.97;5070727;28;20016;-72
2021/11/21 10:49:18;;;;;;;10.88;4.93;;;;;;;3.63;99.03;98441.31;5070340;28;20025;-71
2021/11/21 10:51:45;;;;;;;9.77;5.00;;;;;;;3.55;98.48;98433.28;5074901;28;20070;-71
2021/11/21 10:54:18;;;;;;;8.40;4.47;;;;;;;3.36;100.00;98437.13;5072279;28;20028;-71
2021/11/21 10:56:46;;;;;;;11.20;4.50;;;;;;;3.31;99.14;98419.94;5069680;28;20035;-73
2021/11/21 10:59:12;;;;;;;9.05;4.80;;;;;;;3.42;99.51;98415.06;5053990;28;20037;-73
2021/11/21 11:01:37;;;;;;;11.57;5.30;;;;;;;3.32;98.56;98381.47;5065033;28;20029;-73
2021/11/21 11:04:08;;;;;;;8.30;4.75;;;;;;;3.50;99.43;98425.75;5068578;28;20104;-74
2021/11/21 11:06:33;;;;;;;7.95;4.50;;;;;;;3.81;97.99;98418.88;5062210;28;20028;-73
2021/11/21 11:09:23;;;;;;;8.40;4.60;;;;;;;3.56;97.35;98407.38;5068586;28;20063;-75
2021/11/21 11:11:52;;;;;;;;;;;;;;;3.67;98.14;98412.41;5069463;28;20028;-70
2021/11/21 11:14:20;;;;;;;8.90;3.88;;;;;;;3.65;97.97;98420.56;5059869;28;19923;-71
2021/11/21 11:16:51;;;;;;;7.43;3.55;;;;;;;3.69;97.26;98427.28;5065208;28;20112;-71
2021/11/21 11:19:18;;;;;;;10.32;3.92;;;;;;;3.64;97.28;98405.53;5050187;28;20025;-71